createdAt,value
2019-02-11T00:01:23.124Z,0.50
2019-02-11T00:03:59.521Z,0.50
2019-02-11T00:06:26.819Z,0.50
2019-02-11T00:08:57.294Z,0.70
2019-02-11T00:11:30.253Z,0.50
2019-02-11T00:14:00.658Z,0.60
2019-02-11T00:16:31.066Z,0.60
2019-02-11T00:19:01.494Z,0.60
2019-02-11T00:21:37.445Z,0.88
2019-02-11T00:24:08.900Z,0.80
2019-02-11T00:26:39.295Z,0.70
2019-02-11T00:29:09.674Z,0.70
2019-02-11T00:31:40.049Z,0.80
2019-02-11T00:34:10.845Z,0.80
2019-02-11T00:36:41.258Z,0.80
2019-02-11T00:39:11.634Z,0.70
2019-02-11T00:41:42.017Z,0.70
2019-02-11T00:44:12.425Z,0.70
2019-02-11T00:46:42.783Z,0.70
2019-02-11T00:49:13.157Z,0.90
2019-02-11T00:51:43.537Z,0.90
2019-02-11T00:54:13.945Z,0.70
2019-02-11T00:56:44.393Z,0.70
2019-02-11T00:59:14.786Z,1.30
2019-02-11T01:01:45.256Z,0.88
2019-02-11T01:04:15.613Z,1.00
2019-02-11T01:06:46.110Z,1.00
2019-02-11T01:09:16.519Z,0.80
2019-02-11T01:11:48.130Z,0.82
2019-02-11T01:14:18.687Z,1.10
2019-02-11T01:16:49.565Z,0.95
2019-02-11T01:19:20.372Z,0.98
2019-02-11T01:21:50.845Z,0.90
2019-02-11T01:24:21.226Z,0.90
2019-02-11T01:26:51.683Z,1.00
2019-02-11T01:29:22.083Z,0.90
2019-02-11T01:31:52.471Z,0.88
2019-02-11T01:34:22.854Z,1.50
2019-02-11T01:36:53.214Z,0.70
2019-02-11T01:39:23.564Z,0.95
2019-02-11T01:41:53.942Z,0.80
2019-02-11T01:44:24.313Z,0.90
2019-02-11T01:46:54.673Z,0.90
2019-02-11T01:49:25.090Z,0.70
2019-02-11T01:51:55.501Z,0.70
2019-02-11T01:54:25.877Z,0.90
2019-02-11T01:56:56.359Z,0.75
2019-02-11T01:59:26.782Z,0.80
2019-02-11T02:01:57.146Z,0.82
2019-02-11T02:04:27.533Z,0.70
2019-02-11T02:06:57.895Z,0.88
2019-02-11T02:09:28.269Z,0.95
2019-02-11T02:11:59.030Z,0.80
2019-02-11T02:14:29.417Z,0.90
2019-02-11T02:16:59.785Z,0.65
2019-02-11T02:19:30.158Z,0.70
2019-02-11T02:22:00.541Z,0.90
2019-02-11T02:24:30.930Z,0.70
2019-02-11T02:27:01.319Z,0.80
2019-02-11T02:29:31.688Z,0.90
2019-02-11T02:32:02.056Z,0.80
2019-02-11T02:34:32.446Z,0.85
2019-02-11T02:37:02.825Z,0.80
2019-02-11T02:39:33.191Z,0.82
2019-02-11T02:42:03.664Z,0.95
2019-02-11T02:44:34.057Z,0.80
2019-02-11T02:47:04.420Z,0.80
2019-02-11T02:49:34.818Z,0.80
2019-02-11T02:52:05.185Z,0.80
2019-02-11T02:54:35.535Z,0.90
2019-02-11T02:57:05.939Z,0.90
2019-02-11T02:59:36.291Z,1.00
2019-02-11T03:02:06.668Z,0.90
2019-02-11T03:04:37.015Z,0.90
2019-02-11T03:07:07.393Z,1.00
2019-02-11T03:09:37.798Z,1.10
2019-02-11T03:12:08.197Z,0.90
2019-02-11T03:14:38.552Z,0.95
2019-02-11T03:17:08.920Z,1.00
2019-02-11T03:19:39.292Z,1.20
2019-02-11T03:22:09.681Z,0.90
2019-02-11T03:24:40.043Z,1.00
2019-02-11T03:27:10.431Z,0.82
2019-02-11T03:29:40.775Z,1.02
2019-02-11T03:32:11.154Z,1.20
2019-02-11T03:34:41.577Z,0.80
2019-02-11T03:37:11.996Z,0.90
2019-02-11T03:39:42.370Z,1.00
2019-02-11T03:42:12.758Z,0.90
2019-02-11T03:44:43.122Z,0.70
2019-02-11T03:47:13.506Z,0.90
2019-02-11T03:49:43.866Z,0.80
2019-02-11T03:52:14.227Z,0.90
2019-02-11T03:54:44.786Z,1.10
2019-02-11T03:57:15.151Z,1.20
2019-02-11T03:59:45.623Z,0.95
2019-02-11T04:02:16.048Z,1.02
2019-02-11T04:04:46.428Z,1.20
2019-02-11T04:07:16.855Z,1.50
2019-02-11T04:09:47.251Z,1.05
2019-02-11T04:12:17.596Z,1.20
2019-02-11T04:14:47.978Z,1.10
2019-02-11T04:17:18.379Z,1.02
2019-02-11T04:19:48.950Z,0.90
2019-02-11T04:22:19.330Z,1.10
2019-02-11T04:24:49.706Z,1.00
2019-02-11T04:27:20.078Z,1.00
2019-02-11T04:29:50.463Z,1.17
2019-02-11T04:32:20.840Z,1.10
2019-02-11T04:34:51.232Z,1.00
2019-02-11T04:37:21.591Z,1.30
2019-02-11T04:39:51.973Z,0.93
2019-02-11T04:42:22.361Z,1.20
2019-02-11T04:44:52.764Z,1.15
2019-02-11T04:47:23.135Z,1.20
2019-02-11T04:49:53.510Z,1.00
2019-02-11T04:52:23.882Z,1.30
2019-02-11T04:54:54.251Z,1.00
2019-02-11T04:57:24.640Z,1.22
2019-02-11T04:59:55.105Z,1.00
2019-02-11T05:02:25.460Z,1.05
2019-02-11T05:04:55.823Z,0.93
2019-02-11T05:07:26.575Z,1.00
2019-02-11T05:09:56.961Z,1.10
2019-02-11T05:12:27.353Z,1.17
2019-02-11T05:14:57.750Z,1.20
2019-02-11T05:17:28.146Z,1.00
2019-02-11T05:19:58.530Z,1.20
2019-02-11T05:22:28.998Z,1.10
2019-02-11T05:24:59.394Z,1.00
2019-02-11T05:27:29.775Z,0.80
2019-02-11T05:30:00.297Z,1.20
2019-02-11T05:32:30.703Z,1.10
2019-02-11T05:35:01.093Z,0.90
2019-02-11T05:37:31.565Z,1.00
2019-02-11T05:40:01.927Z,1.00
2019-02-11T05:42:32.346Z,1.20
2019-02-11T05:45:02.724Z,1.10
2019-02-11T05:47:33.184Z,0.93
2019-02-11T05:50:03.663Z,1.25
2019-02-11T05:52:34.058Z,1.10
2019-02-11T05:55:04.502Z,1.00
2019-02-11T05:57:38.160Z,1.20
2019-02-11T06:00:10.055Z,1.10
2019-02-11T06:02:40.477Z,1.10
2019-02-11T06:05:10.913Z,0.80
2019-02-11T06:07:41.334Z,0.82
2019-02-11T06:10:11.863Z,0.80
2019-02-11T06:12:42.286Z,1.10
2019-02-11T06:15:12.717Z,0.95
2019-02-11T06:17:43.096Z,0.90
2019-02-11T06:20:13.545Z,0.90
2019-02-11T06:22:43.933Z,1.20
2019-02-11T06:25:14.304Z,1.30
2019-02-11T06:27:44.781Z,1.10
2019-02-11T06:30:15.384Z,1.40
2019-02-11T06:32:45.756Z,1.05
2019-02-11T06:35:16.162Z,1.20
2019-02-11T06:37:46.543Z,1.10
2019-02-11T06:40:16.912Z,0.90
2019-02-11T06:42:47.279Z,1.00
2019-02-11T06:45:21.306Z,1.10
2019-02-11T06:47:51.661Z,1.15
2019-02-11T06:50:22.032Z,1.20
2019-02-11T06:52:52.386Z,1.15
2019-02-11T06:55:22.774Z,1.30
2019-02-11T06:57:53.170Z,1.02
2019-02-11T07:00:23.546Z,1.22
2019-02-11T07:02:53.930Z,1.05
2019-02-11T07:05:24.334Z,1.22
2019-02-11T07:07:54.789Z,1.10
2019-02-11T07:10:25.225Z,1.15
2019-02-11T07:12:55.613Z,1.00
2019-02-11T07:15:25.986Z,1.00
2019-02-11T07:17:56.374Z,1.70
2019-02-11T07:20:26.751Z,1.40
2019-02-11T07:22:57.118Z,1.30
2019-02-11T07:25:27.573Z,1.12
2019-02-11T07:27:57.942Z,1.00
2019-02-11T07:30:28.305Z,1.15
2019-02-11T07:32:58.661Z,1.27
2019-02-11T07:35:29.181Z,1.20
2019-02-11T07:37:59.534Z,1.10
2019-02-11T07:40:30.021Z,1.02
2019-02-11T07:43:22.115Z,1.45
2019-02-11T07:46:11.602Z,1.35
2019-02-11T07:48:41.973Z,1.20
2019-02-11T07:51:12.378Z,1.10
2019-02-11T07:53:42.741Z,1.30
2019-02-11T07:56:13.133Z,1.10
2019-02-11T07:58:43.531Z,1.30
2019-02-11T08:01:13.902Z,0.95
2019-02-11T08:03:44.314Z,1.30
2019-02-11T08:06:14.719Z,0.98
2019-02-11T08:08:45.074Z,1.30
2019-02-11T08:11:15.494Z,1.00
2019-02-11T08:13:45.879Z,1.07
2019-02-11T08:16:16.262Z,1.00
2019-02-11T08:18:46.597Z,1.42
2019-02-11T08:21:17.078Z,1.10
2019-02-11T08:23:47.422Z,0.90
2019-02-11T08:26:17.804Z,1.25
2019-02-11T08:28:48.160Z,1.20
2019-02-11T08:31:18.507Z,1.10
2019-02-11T08:33:48.866Z,0.90
2019-02-11T08:36:19.201Z,1.00
2019-02-11T08:38:49.557Z,1.65
2019-02-11T08:41:19.932Z,2.40
2019-02-11T08:43:50.318Z,1.12
2019-02-11T08:46:20.651Z,1.30
2019-02-11T08:48:52.316Z,1.30
2019-02-11T08:51:22.749Z,1.07
2019-02-11T08:53:53.117Z,1.05
2019-02-11T08:56:23.465Z,1.00
2019-02-11T08:58:53.837Z,1.12
2019-02-11T09:01:24.214Z,1.20
2019-02-11T09:03:54.569Z,1.42
2019-02-11T09:06:24.909Z,0.90
2019-02-11T09:08:55.280Z,1.10
2019-02-11T09:11:25.749Z,0.90
2019-02-11T09:13:56.141Z,0.93
2019-02-11T09:16:26.625Z,0.93
2019-02-11T09:18:57.073Z,0.75
2019-02-11T09:21:27.455Z,1.00
2019-02-11T09:23:57.801Z,1.17
2019-02-11T09:26:28.147Z,0.80
2019-02-11T09:28:58.487Z,0.90
2019-02-11T09:31:28.844Z,1.22
2019-02-11T09:33:59.184Z,0.90
2019-02-11T09:36:29.674Z,0.80
2019-02-11T09:39:00.015Z,0.90
2019-02-11T09:41:32.182Z,0.75
2019-02-11T09:44:02.402Z,1.10
2019-02-11T09:46:32.774Z,0.80
2019-02-11T09:49:03.129Z,0.95
2019-02-11T09:51:35.714Z,1.37
2019-02-11T09:54:06.633Z,0.62
2019-02-11T09:56:37.421Z,1.00
2019-02-11T09:59:07.769Z,1.05
2019-02-11T10:01:38.541Z,1.00
2019-02-11T10:04:08.893Z,1.00
2019-02-11T10:06:39.248Z,1.00
2019-02-11T10:09:09.585Z,1.17
2019-02-11T10:11:39.925Z,0.80
2019-02-11T10:14:10.262Z,0.70
2019-02-11T10:16:40.721Z,1.00
2019-02-11T10:19:11.081Z,1.35
2019-02-11T10:21:41.443Z,1.00
2019-02-11T10:24:11.803Z,1.12
2019-02-11T10:26:42.155Z,0.70
2019-02-11T10:29:12.510Z,0.85
2019-02-11T10:31:42.882Z,1.37
2019-02-11T10:34:13.254Z,1.17
2019-02-11T10:36:43.612Z,1.25
2019-02-11T10:39:13.944Z,0.90
2019-02-11T10:41:44.306Z,0.90
2019-02-11T10:44:14.708Z,1.00
2019-02-11T10:46:45.050Z,0.90
2019-02-11T10:49:15.697Z,0.98
2019-02-11T10:51:46.130Z,0.70
2019-02-11T10:54:16.581Z,0.70
2019-02-11T10:56:46.948Z,1.80
2019-02-11T10:59:17.315Z,1.10
2019-02-11T11:01:47.662Z,1.10
2019-02-11T11:04:18.234Z,1.30
2019-02-11T11:06:48.574Z,1.07
2019-02-11T11:09:19.037Z,1.25
2019-02-11T11:11:49.382Z,2.15
2019-02-11T11:14:19.755Z,1.00
2019-02-11T11:16:50.093Z,1.07
2019-02-11T11:19:21.553Z,1.00
2019-02-11T11:21:51.891Z,1.37
2019-02-11T11:24:22.236Z,0.90
2019-02-11T11:26:52.605Z,1.07
2019-02-11T11:29:22.962Z,0.90
2019-02-11T11:31:53.318Z,1.10
2019-02-11T11:34:23.703Z,1.00
2019-02-11T11:36:54.042Z,1.05
2019-02-11T11:39:26.241Z,1.00
2019-02-11T11:41:56.582Z,1.10
2019-02-11T11:44:26.929Z,1.22
2019-02-11T11:46:57.266Z,1.10
2019-02-11T11:49:27.851Z,1.40
2019-02-11T11:51:58.204Z,1.10
2019-02-11T11:54:28.557Z,1.10
2019-02-11T11:56:59.509Z,1.12
2019-02-11T11:59:30.094Z,1.10
2019-02-11T12:02:00.435Z,1.17
2019-02-11T12:04:30.793Z,1.07
2019-02-11T12:07:01.260Z,1.00
2019-02-11T12:09:31.645Z,1.25
2019-02-11T12:12:02.026Z,1.07
2019-02-11T12:14:32.461Z,3.15
2019-02-11T12:17:03.594Z,1.30
2019-02-11T12:19:34.189Z,1.30
2019-02-11T12:22:04.665Z,1.52
2019-02-11T12:24:35.091Z,1.10
2019-02-11T12:27:05.533Z,1.12
2019-02-11T12:29:36.153Z,1.30
2019-02-11T12:32:06.586Z,1.40
2019-02-11T12:34:37.133Z,1.12
2019-02-11T12:37:09.359Z,0.90
2019-02-11T12:39:39.547Z,1.00
2019-02-11T12:42:10.091Z,1.12
2019-02-11T12:44:40.519Z,1.10
2019-02-11T12:47:14.513Z,1.00
2019-02-11T12:49:42.917Z,1.55
2019-02-11T12:52:13.279Z,1.50
2019-02-11T12:54:43.658Z,1.10
2019-02-11T12:57:14.087Z,1.45
2019-02-11T12:59:44.433Z,1.60
2019-02-11T13:02:14.807Z,1.32
2019-02-11T13:04:45.198Z,1.20
2019-02-11T13:07:15.623Z,1.00
2019-02-11T13:09:46.052Z,1.20
2019-02-11T13:12:16.424Z,1.07
2019-02-11T13:14:47.295Z,1.35
2019-02-11T13:17:32.645Z,1.65
2019-02-11T13:20:06.717Z,1.60
2019-02-11T13:22:22.110Z,1.50
2019-02-11T13:24:52.476Z,1.40
2019-02-11T13:27:22.849Z,1.72
2019-02-11T13:29:53.216Z,1.50
2019-02-11T13:32:23.576Z,1.42
2019-02-11T13:34:54.087Z,1.17
2019-02-11T13:37:24.589Z,1.30
2019-02-11T13:39:55.070Z,1.00
2019-02-11T13:42:25.597Z,1.30
2019-02-11T13:44:56.058Z,1.20
2019-02-11T13:47:26.437Z,1.57
2019-02-11T13:49:56.979Z,1.37
2019-02-11T13:52:27.594Z,1.20
2019-02-11T13:54:57.971Z,1.15
2019-02-11T13:57:28.826Z,1.22
2019-02-11T13:59:59.210Z,1.57
2019-02-11T14:02:29.549Z,1.50
2019-02-11T14:05:00.034Z,2.17
2019-02-11T14:07:30.572Z,1.50
2019-02-11T14:10:02.400Z,1.45
2019-02-11T14:12:33.166Z,1.70
2019-02-11T14:15:03.583Z,1.20
2019-02-11T14:17:34.040Z,1.90
2019-02-11T14:20:04.538Z,1.22
2019-02-11T14:22:34.916Z,1.15
2019-02-11T14:25:05.911Z,1.22
2019-02-11T14:27:36.492Z,1.27
2019-02-11T14:30:07.640Z,1.15
2019-02-11T14:32:38.120Z,1.20
2019-02-11T14:35:08.574Z,1.40
2019-02-11T14:37:39.118Z,1.50
2019-02-11T14:40:10.140Z,1.10
2019-02-11T14:42:40.506Z,1.30
2019-02-11T14:45:11.641Z,1.77
2019-02-11T14:47:44.498Z,1.40
2019-02-11T14:50:14.148Z,1.12
2019-02-11T14:52:44.525Z,1.40
2019-02-11T14:55:14.914Z,1.20
2019-02-11T14:57:45.279Z,1.20
2019-02-11T15:00:18.622Z,0.90
2019-02-11T15:02:49.039Z,1.10
2019-02-11T15:05:19.584Z,1.00
2019-02-11T15:07:50.042Z,1.17
2019-02-11T15:10:20.443Z,1.50
2019-02-11T15:12:50.811Z,1.22
2019-02-11T15:15:21.292Z,0.93
2019-02-11T15:17:51.668Z,1.27
2019-02-11T15:20:22.045Z,1.35
2019-02-11T15:22:52.417Z,1.00
2019-02-11T15:25:22.811Z,1.10
2019-02-11T15:27:53.248Z,0.88
2019-02-11T15:30:23.610Z,1.47
2019-02-11T15:32:54.117Z,1.20
2019-02-11T15:35:24.499Z,1.17
2019-02-11T15:37:54.894Z,0.95
2019-02-11T15:40:25.382Z,0.70
2019-02-11T15:42:55.785Z,1.00
2019-02-11T15:45:26.191Z,1.00
2019-02-11T15:47:56.606Z,0.90
2019-02-11T15:50:26.999Z,1.77
2019-02-11T15:52:58.998Z,1.07
2019-02-11T15:55:29.597Z,0.90
2019-02-11T15:57:59.979Z,1.00
2019-02-11T16:00:30.375Z,1.15
2019-02-11T16:03:00.844Z,1.17
2019-02-11T16:05:31.274Z,1.10
2019-02-11T16:08:01.652Z,1.12
2019-02-11T16:10:32.022Z,1.10
2019-02-11T16:13:02.411Z,1.07
2019-02-11T16:15:32.887Z,1.15
2019-02-11T16:18:03.235Z,1.07
2019-02-11T16:20:33.633Z,1.47
2019-02-11T16:23:04.029Z,1.22
2019-02-11T16:25:34.403Z,1.05
2019-02-11T16:28:04.771Z,1.22
2019-02-11T16:30:35.176Z,1.20
2019-02-11T16:33:05.583Z,1.20
2019-02-11T16:35:36.006Z,1.32
2019-02-11T16:38:06.413Z,1.50
2019-02-11T16:40:36.869Z,1.10
2019-02-11T16:43:07.258Z,1.30
2019-02-11T16:45:37.661Z,1.40
2019-02-11T16:48:08.029Z,1.22
2019-02-11T16:50:38.465Z,1.50
2019-02-11T16:53:08.919Z,1.70
2019-02-11T16:55:39.334Z,1.80
2019-02-11T16:58:09.737Z,1.62
2019-02-11T17:00:40.166Z,1.25
2019-02-11T17:03:10.568Z,1.40
2019-02-11T17:05:40.975Z,1.72
2019-02-11T17:08:11.455Z,1.20
2019-02-11T17:10:41.823Z,1.30
2019-02-11T17:13:12.285Z,1.40
2019-02-11T17:15:42.734Z,1.67
2019-02-11T17:18:13.153Z,1.32
2019-02-11T17:20:43.489Z,1.30
2019-02-11T17:23:13.915Z,1.72
2019-02-11T17:25:44.287Z,1.40
2019-02-11T17:28:14.687Z,1.50
2019-02-11T17:30:45.133Z,1.75
2019-02-11T17:33:15.530Z,1.30
2019-02-11T17:35:45.952Z,1.52
2019-02-11T17:38:16.405Z,1.60
2019-02-11T17:40:46.767Z,1.50
2019-02-11T17:43:17.501Z,1.55
2019-02-11T17:45:47.867Z,1.50
2019-02-11T17:48:19.234Z,1.72
2019-02-11T17:50:49.591Z,1.50
2019-02-11T17:53:20.427Z,1.40
2019-02-11T17:55:50.906Z,1.80
2019-02-11T17:58:21.403Z,2.08
2019-02-11T18:00:56.046Z,1.20
2019-02-11T18:03:26.516Z,1.40
2019-02-11T18:05:56.859Z,1.90
2019-02-11T18:08:27.266Z,2.83
2019-02-11T18:10:57.670Z,3.35
2019-02-11T18:13:28.061Z,1.77
2019-02-11T18:15:58.466Z,1.60
2019-02-11T18:18:28.874Z,1.60
2019-02-11T18:20:59.280Z,1.30
2019-02-11T18:23:29.679Z,1.50
2019-02-11T18:26:00.096Z,1.65
2019-02-11T18:28:30.482Z,2.02
2019-02-11T18:31:01.064Z,1.57
2019-02-11T18:33:31.509Z,1.98
2019-02-11T18:36:02.159Z,1.70
2019-02-11T18:38:32.557Z,1.60
2019-02-11T18:41:03.048Z,1.80
2019-02-11T18:43:33.547Z,2.22
2019-02-11T18:46:04.051Z,1.40
2019-02-11T18:48:34.398Z,2.45
2019-02-11T18:51:04.868Z,2.33
2019-02-11T18:53:35.266Z,1.52
2019-02-11T18:56:05.705Z,2.77
2019-02-11T18:58:36.176Z,2.37
2019-02-11T19:01:06.658Z,1.72
2019-02-11T19:03:37.044Z,2.37
2019-02-11T19:06:07.449Z,2.05
2019-02-11T19:08:37.871Z,1.85
2019-02-11T19:11:08.290Z,2.12
2019-02-11T19:13:38.661Z,1.80
2019-02-11T19:16:09.040Z,1.80
2019-02-11T19:18:39.459Z,1.70
2019-02-11T19:21:09.944Z,1.70
2019-02-11T19:23:40.399Z,1.77
2019-02-11T19:26:10.922Z,1.70
2019-02-11T19:28:41.297Z,2.62
2019-02-11T19:31:11.731Z,1.90
2019-02-11T19:33:42.212Z,1.70
2019-02-11T19:36:12.669Z,1.75
2019-02-11T19:38:43.077Z,1.90
2019-02-11T19:41:13.571Z,2.10
2019-02-11T19:43:43.954Z,2.10
2019-02-11T19:46:14.374Z,2.95
2019-02-11T19:48:44.752Z,2.33
2019-02-11T19:51:15.159Z,2.40
2019-02-11T19:53:45.674Z,2.25
2019-02-11T19:56:16.106Z,3.10
2019-02-11T19:58:46.475Z,2.62
2019-02-11T20:01:16.885Z,2.15
2019-02-11T20:03:47.982Z,3.45
2019-02-11T20:06:18.441Z,2.95
2019-02-11T20:08:48.891Z,3.12
2019-02-11T20:11:19.393Z,2.77
2019-02-11T20:13:49.873Z,2.17
2019-02-11T20:16:20.335Z,2.45
2019-02-11T20:18:50.744Z,2.05
2019-02-11T20:21:21.222Z,2.42
2019-02-11T20:23:51.616Z,2.10
2019-02-11T20:26:22.079Z,2.60
2019-02-11T20:28:52.447Z,2.22
2019-02-11T20:31:22.832Z,2.05
2019-02-11T20:33:53.257Z,2.27
2019-02-11T20:36:23.729Z,2.35
2019-02-11T20:38:54.230Z,2.20
2019-02-11T20:41:24.662Z,3.37
2019-02-11T20:43:55.102Z,3.50
2019-02-11T20:46:25.552Z,2.67
2019-02-11T20:48:56.003Z,2.80
2019-02-11T20:51:26.404Z,2.60
2019-02-11T20:53:56.910Z,2.83
2019-02-11T20:56:27.305Z,2.30
2019-02-11T20:58:57.748Z,2.30
2019-02-11T21:01:28.187Z,1.80
2019-02-11T21:03:58.562Z,2.35
2019-02-11T21:06:29.033Z,1.80
2019-02-11T21:08:59.532Z,1.70
2019-02-11T21:11:29.929Z,1.50
2019-02-11T21:14:00.435Z,2.22
2019-02-11T21:16:30.897Z,1.50
2019-02-11T21:19:01.249Z,1.30
2019-02-11T21:21:31.636Z,1.35
2019-02-11T21:24:02.064Z,1.32
2019-02-11T21:26:32.449Z,1.10
2019-02-11T21:29:02.949Z,2.00
2019-02-11T21:31:33.349Z,1.40
2019-02-11T21:34:04.072Z,1.25
2019-02-11T21:36:34.568Z,1.20
2019-02-11T21:39:06.517Z,1.15
2019-02-11T21:41:36.877Z,1.35
2019-02-11T21:44:07.253Z,1.00
2019-02-11T21:46:37.660Z,2.12
2019-02-11T21:49:08.133Z,1.72
2019-02-11T21:51:38.519Z,1.52
2019-02-11T21:54:08.889Z,1.40
2019-02-11T21:56:39.267Z,1.15
2019-02-11T21:59:09.662Z,1.20
2019-02-11T22:01:40.065Z,1.32
2019-02-11T22:04:10.518Z,1.57
2019-02-11T22:06:40.935Z,1.60
2019-02-11T22:09:11.289Z,1.87
2019-02-11T22:11:41.658Z,1.10
2019-02-11T22:14:12.142Z,1.40
2019-02-11T22:16:42.527Z,1.42
2019-02-11T22:19:12.905Z,1.45
2019-02-11T22:21:43.318Z,1.32
2019-02-11T22:24:13.666Z,1.20
2019-02-11T22:26:44.088Z,1.30
2019-02-11T22:29:14.440Z,1.45
2019-02-11T22:31:44.822Z,1.70
2019-02-11T22:34:16.259Z,1.50
2019-02-11T22:36:46.615Z,1.60
2019-02-11T22:39:16.974Z,1.57
2019-02-11T22:41:47.325Z,1.50
2019-02-11T22:44:17.702Z,1.80
2019-02-11T22:46:48.115Z,1.92
2019-02-11T22:49:18.491Z,1.90
2019-02-11T22:51:48.885Z,1.60
2019-02-11T22:54:19.263Z,1.80
2019-02-11T22:56:49.622Z,1.60
2019-02-11T22:59:20.134Z,1.95
2019-02-11T23:01:50.596Z,1.82
2019-02-11T23:04:21.101Z,1.65
2019-02-11T23:06:51.485Z,2.02
2019-02-11T23:09:21.873Z,1.72
2019-02-11T23:11:52.229Z,1.82
2019-02-11T23:14:22.646Z,1.80
2019-02-11T23:16:53.014Z,1.70
2019-02-11T23:19:23.394Z,1.75
2019-02-11T23:21:53.757Z,1.85
2019-02-11T23:24:24.133Z,1.92
2019-02-11T23:26:54.490Z,1.92
2019-02-11T23:29:24.849Z,1.72
2019-02-11T23:31:55.341Z,1.70
2019-02-11T23:34:25.710Z,1.80
2019-02-11T23:36:56.113Z,2.02
2019-02-11T23:39:26.496Z,2.30
2019-02-11T23:41:56.892Z,2.10
2019-02-11T23:44:27.223Z,1.90
2019-02-11T23:46:57.581Z,2.40
2019-02-11T23:49:27.991Z,2.62
2019-02-11T23:51:58.355Z,2.05
2019-02-11T23:54:28.707Z,2.20
2019-02-11T23:56:59.105Z,3.37
2019-02-11T23:59:29.455Z,2.55
